sensor_id;sensor_type;location;lat;lon;timestamp;temperature;humidity
7349;DHT22;13010;-33.424;-70.614;2022-12-28T00:02:03;23.30;99.90
7349;DHT22;13010;-33.424;-70.614;2022-12-28T00:04:52;22.90;99.90
7349;DHT22;13010;-33.424;-70.614;2022-12-28T00:07:41;22.70;99.90
7349;DHT22;13010;-33.424;-70.614;2022-12-28T00:10:32;22.50;99.90
7349;DHT22;13010;-33.424;-70.614;2022-12-28T00:13:21;22.30;99.90
7349;DHT22;13010;-33.424;-70.614;2022-12-28T00:16:12;22.10;99.90
7349;DHT22;13010;-33.424;-70.614;2022-12-28T00:19:03;22.00;99.90
7349;DHT22;13010;-33.424;-70.614;2022-12-28T00:21:53;21.80;99.90
7349;DHT22;13010;-33.424;-70.614;2022-12-28T00:24:42;21.70;99.90
7349;DHT22;13010;-33.424;-70.614;2022-12-28T00:27:33;21.50;99.90
7349;DHT22;13010;-33.424;-70.614;2022-12-28T00:30:21;21.50;99.90
7349;DHT22;13010;-33.424;-70.614;2022-12-28T00:33:10;21.40;99.90
7349;DHT22;13010;-33.424;-70.614;2022-12-28T00:36:00;21.40;99.90
7349;DHT22;13010;-33.424;-70.614;2022-12-28T00:38:49;21.30;99.90
7349;DHT22;13010;-33.424;-70.614;2022-12-28T00:41:38;21.30;99.90
7349;DHT22;13010;-33.424;-70.614;2022-12-28T00:44:29;21.20;99.90
7349;DHT22;13010;-33.424;-70.614;2022-12-28T00:47:18;21.20;99.90
7349;DHT22;13010;-33.424;-70.614;2022-12-28T00:50:07;21.10;99.90
7349;DHT22;13010;-33.424;-70.614;2022-12-28T00:52:56;21.00;99.90
7349;DHT22;13010;-33.424;-70.614;2022-12-28T00:55:45;21.00;99.90
7349;DHT22;13010;-33.424;-70.614;2022-12-28T00:58:34;20.90;99.90
7349;DHT22;13010;-33.424;-70.614;2022-12-28T01:01:26;20.80;99.90
7349;DHT22;13010;-33.424;-70.614;2022-12-28T01:04:15;20.60;99.90
7349;DHT22;13010;-33.424;-70.614;2022-12-28T01:07:04;20.40;99.90
7349;DHT22;13010;-33.424;-70.614;2022-12-28T01:09:53;20.30;99.90
7349;DHT22;13010;-33.424;-70.614;2022-12-28T01:12:42;20.20;99.90
7349;DHT22;13010;-33.424;-70.614;2022-12-28T01:15:31;20.00;99.90
7349;DHT22;13010;-33.424;-70.614;2022-12-28T01:18:22;19.90;99.90
7349;DHT22;13010;-33.424;-70.614;2022-12-28T01:21:12;19.70;99.90
7349;DHT22;13010;-33.424;-70.614;2022-12-28T01:24:02;19.70;99.90
7349;DHT22;13010;-33.424;-70.614;2022-12-28T01:26:52;19.60;99.90
7349;DHT22;13010;-33.424;-70.614;2022-12-28T01:29:41;19.50;99.90
7349;DHT22;13010;-33.424;-70.614;2022-12-28T01:32:30;19.50;99.90
7349;DHT22;13010;-33.424;-70.614;2022-12-28T01:35:21;19.40;99.90
7349;DHT22;13010;-33.424;-70.614;2022-12-28T01:38:10;19.40;99.90
7349;DHT22;13010;-33.424;-70.614;2022-12-28T01:40:58;19.30;99.90
7349;DHT22;13010;-33.424;-70.614;2022-12-28T01:46:53;19.20;99.90
7349;DHT22;13010;-33.424;-70.614;2022-12-28T01:49:46;19.10;99.90
7349;DHT22;13010;-33.424;-70.614;2022-12-28T01:52:40;18.90;99.90
7349;DHT22;13010;-33.424;-70.614;2022-12-28T01:55:31;18.80;99.90
7349;DHT22;13010;-33.424;-70.614;2022-12-28T01:58:22;18.70;99.90
7349;DHT22;13010;-33.424;-70.614;2022-12-28T02:01:11;18.50;99.90
7349;DHT22;13010;-33.424;-70.614;2022-12-28T02:04:00;18.50;99.90
7349;DHT22;13010;-33.424;-70.614;2022-12-28T02:06:50;18.50;99.90
7349;DHT22;13010;-33.424;-70.614;2022-12-28T02:09:42;18.40;99.90
7349;DHT22;13010;-33.424;-70.614;2022-12-28T02:12:32;18.40;99.90
7349;DHT22;13010;-33.424;-70.614;2022-12-28T02:15:21;18.40;99.90
7349;DHT22;13010;-33.424;-70.614;2022-12-28T02:18:10;18.50;99.90
7349;DHT22;13010;-33.424;-70.614;2022-12-28T02:21:30;18.60;99.90
7349;DHT22;13010;-33.424;-70.614;2022-12-28T02:27:52;18.70;99.90
7349;DHT22;13010;-33.424;-70.614;2022-12-28T02:30:51;18.60;99.90
7349;DHT22;13010;-33.424;-70.614;2022-12-28T02:33:50;18.70;99.90
7349;DHT22;13010;-33.424;-70.614;2022-12-28T02:36:48;18.60;99.90
7349;DHT22;13010;-33.424;-70.614;2022-12-28T02:39:43;18.50;99.90
7349;DHT22;13010;-33.424;-70.614;2022-12-28T02:42:34;18.40;99.90
7349;DHT22;13010;-33.424;-70.614;2022-12-28T02:45:31;18.40;99.90
7349;DHT22;13010;-33.424;-70.614;2022-12-28T02:48:42;18.30;99.90
7349;DHT22;13010;-33.424;-70.614;2022-12-28T02:51:58;18.40;99.90
7349;DHT22;13010;-33.424;-70.614;2022-12-28T02:58:40;18.20;99.90
7349;DHT22;13010;-33.424;-70.614;2022-12-28T03:01:54;18.10;99.90
7349;DHT22;13010;-33.424;-70.614;2022-12-28T03:05:02;18.10;99.90
7349;DHT22;13010;-33.424;-70.614;2022-12-28T03:07:58;18.00;99.90
7349;DHT22;13010;-33.424;-70.614;2022-12-28T03:11:09;18.00;99.90
7349;DHT22;13010;-33.424;-70.614;2022-12-28T03:14:02;17.90;99.90
7349;DHT22;13010;-33.424;-70.614;2022-12-28T03:16:53;17.60;99.90
7349;DHT22;13010;-33.424;-70.614;2022-12-28T03:20:06;17.60;99.90
7349;DHT22;13010;-33.424;-70.614;2022-12-28T03:23:16;17.70;99.90
7349;DHT22;13010;-33.424;-70.614;2022-12-28T03:26:24;17.70;99.90
7349;DHT22;13010;-33.424;-70.614;2022-12-28T03:29:31;17.70;99.90
7349;DHT22;13010;-33.424;-70.614;2022-12-28T03:32:36;17.50;99.90
7349;DHT22;13010;-33.424;-70.614;2022-12-28T03:35:33;17.50;99.90
7349;DHT22;13010;-33.424;-70.614;2022-12-28T03:38:28;17.30;99.90
7349;DHT22;13010;-33.424;-70.614;2022-12-28T03:41:26;17.30;99.90
7349;DHT22;13010;-33.424;-70.614;2022-12-28T03:44:20;17.30;99.90
7349;DHT22;13010;-33.424;-70.614;2022-12-28T03:47:09;17.20;99.90
7349;DHT22;13010;-33.424;-70.614;2022-12-28T03:49:59;17.20;99.90
7349;DHT22;13010;-33.424;-70.614;2022-12-28T03:52:51;17.20;99.90
7349;DHT22;13010;-33.424;-70.614;2022-12-28T03:55:40;17.20;99.90
7349;DHT22;13010;-33.424;-70.614;2022-12-28T03:58:30;17.10;99.90
7349;DHT22;13010;-33.424;-70.614;2022-12-28T04:01:19;16.90;99.90
7349;DHT22;13010;-33.424;-70.614;2022-12-28T04:04:09;16.80;99.90
7349;DHT22;13010;-33.424;-70.614;2022-12-28T04:06:57;16.80;99.90
7349;DHT22;13010;-33.424;-70.614;2022-12-28T04:09:48;16.80;99.90
7349;DHT22;13010;-33.424;-70.614;2022-12-28T04:12:37;16.90;99.90
7349;DHT22;13010;-33.424;-70.614;2022-12-28T04:15:26;16.90;99.90
7349;DHT22;13010;-33.424;-70.614;2022-12-28T04:18:15;16.90;99.90
7349;DHT22;13010;-33.424;-70.614;2022-12-28T04:21:05;16.90;99.90
7349;DHT22;13010;-33.424;-70.614;2022-12-28T04:23:53;16.90;99.90
7349;DHT22;13010;-33.424;-70.614;2022-12-28T04:26:44;17.00;99.90
7349;DHT22;13010;-33.424;-70.614;2022-12-28T04:29:33;17.10;99.90
7349;DHT22;13010;-33.424;-70.614;2022-12-28T04:32:22;17.10;99.90
7349;DHT22;13010;-33.424;-70.614;2022-12-28T04:35:11;17.20;99.90
7349;DHT22;13010;-33.424;-70.614;2022-12-28T04:38:00;17.30;99.90
7349;DHT22;13010;-33.424;-70.614;2022-12-28T04:40:49;17.40;99.90
7349;DHT22;13010;-33.424;-70.614;2022-12-28T04:43:39;17.40;99.90
7349;DHT22;13010;-33.424;-70.614;2022-12-28T04:46:28;17.40;99.90
7349;DHT22;13010;-33.424;-70.614;2022-12-28T04:49:17;17.30;99.90
7349;DHT22;13010;-33.424;-70.614;2022-12-28T04:52:06;17.20;99.90
7349;DHT22;13010;-33.424;-70.614;2022-12-28T04:54:55;17.20;99.90
7349;DHT22;13010;-33.424;-70.614;2022-12-28T04:57:44;17.00;99.90
7349;DHT22;13010;-33.424;-70.614;2022-12-28T05:00:35;16.90;99.90
7349;DHT22;13010;-33.424;-70.614;2022-12-28T05:03:24;16.80;99.90
7349;DHT22;13010;-33.424;-70.614;2022-12-28T05:06:15;16.60;99.90
7349;DHT22;13010;-33.424;-70.614;2022-12-28T05:09:04;16.40;99.90
7349;DHT22;13010;-33.424;-70.614;2022-12-28T05:11:54;16.10;99.90
7349;DHT22;13010;-33.424;-70.614;2022-12-28T05:14:44;16.00;99.90
7349;DHT22;13010;-33.424;-70.614;2022-12-28T05:17:34;15.80;99.90
7349;DHT22;13010;-33.424;-70.614;2022-12-28T05:20:23;15.70;99.90
7349;DHT22;13010;-33.424;-70.614;2022-12-28T05:23:12;15.50;99.90
7349;DHT22;13010;-33.424;-70.614;2022-12-28T05:26:01;15.50;99.90
7349;DHT22;13010;-33.424;-70.614;2022-12-28T05:28:50;15.30;99.90
7349;DHT22;13010;-33.424;-70.614;2022-12-28T05:31:39;15.20;99.90
7349;DHT22;13010;-33.424;-70.614;2022-12-28T05:34:30;15.20;99.90
7349;DHT22;13010;-33.424;-70.614;2022-12-28T05:37:19;15.10;99.90
7349;DHT22;13010;-33.424;-70.614;2022-12-28T05:40:09;14.90;99.90
7349;DHT22;13010;-33.424;-70.614;2022-12-28T05:42:59;14.70;99.90
7349;DHT22;13010;-33.424;-70.614;2022-12-28T05:45:47;14.70;99.90
7349;DHT22;13010;-33.424;-70.614;2022-12-28T05:48:38;14.50;99.90
7349;DHT22;13010;-33.424;-70.614;2022-12-28T05:51:29;14.50;99.90
7349;DHT22;13010;-33.424;-70.614;2022-12-28T05:54:18;14.60;99.90
7349;DHT22;13010;-33.424;-70.614;2022-12-28T05:57:08;14.50;99.90
7349;DHT22;13010;-33.424;-70.614;2022-12-28T05:59:56;14.60;99.90
7349;DHT22;13010;-33.424;-70.614;2022-12-28T06:02:45;14.60;99.90
7349;DHT22;13010;-33.424;-70.614;2022-12-28T06:05:34;14.60;99.90
7349;DHT22;13010;-33.424;-70.614;2022-12-28T06:08:25;14.40;99.90
7349;DHT22;13010;-33.424;-70.614;2022-12-28T06:11:17;14.40;99.90
7349;DHT22;13010;-33.424;-70.614;2022-12-28T06:14:06;14.40;99.90
7349;DHT22;13010;-33.424;-70.614;2022-12-28T06:16:55;14.30;99.90
7349;DHT22;13010;-33.424;-70.614;2022-12-28T06:19:43;14.20;99.90
7349;DHT22;13010;-33.424;-70.614;2022-12-28T06:22:33;14.10;99.90
7349;DHT22;13010;-33.424;-70.614;2022-12-28T06:25:23;14.00;99.90
7349;DHT22;13010;-33.424;-70.614;2022-12-28T06:28:12;13.90;99.90
7349;DHT22;13010;-33.424;-70.614;2022-12-28T06:31:02;13.80;99.90
7349;DHT22;13010;-33.424;-70.614;2022-12-28T06:33:52;13.80;99.90
7349;DHT22;13010;-33.424;-70.614;2022-12-28T06:36:43;13.70;99.90
7349;DHT22;13010;-33.424;-70.614;2022-12-28T06:39:32;13.60;99.90
7349;DHT22;13010;-33.424;-70.614;2022-12-28T06:42:23;13.50;99.90
7349;DHT22;13010;-33.424;-70.614;2022-12-28T06:45:12;13.40;99.90
7349;DHT22;13010;-33.424;-70.614;2022-12-28T06:48:01;13.40;99.90
7349;DHT22;13010;-33.424;-70.614;2022-12-28T06:50:55;13.30;99.90
7349;DHT22;13010;-33.424;-70.614;2022-12-28T06:53:45;13.30;99.90
7349;DHT22;13010;-33.424;-70.614;2022-12-28T06:56:35;13.10;99.90
7349;DHT22;13010;-33.424;-70.614;2022-12-28T06:59:26;13.10;99.90
7349;DHT22;13010;-33.424;-70.614;2022-12-28T07:02:15;13.00;99.90
7349;DHT22;13010;-33.424;-70.614;2022-12-28T07:05:04;12.90;99.90
7349;DHT22;13010;-33.424;-70.614;2022-12-28T07:07:53;12.80;99.90
7349;DHT22;13010;-33.424;-70.614;2022-12-28T07:10:42;12.80;99.90
7349;DHT22;13010;-33.424;-70.614;2022-12-28T07:13:32;12.70;99.90
7349;DHT22;13010;-33.424;-70.614;2022-12-28T07:16:23;12.70;99.90
7349;DHT22;13010;-33.424;-70.614;2022-12-28T07:19:12;12.50;99.90
7349;DHT22;13010;-33.424;-70.614;2022-12-28T07:22:01;12.40;99.90
7349;DHT22;13010;-33.424;-70.614;2022-12-28T07:24:49;12.30;99.90
7349;DHT22;13010;-33.424;-70.614;2022-12-28T07:27:38;12.30;99.90
7349;DHT22;13010;-33.424;-70.614;2022-12-28T07:30:27;12.20;99.90
7349;DHT22;13010;-33.424;-70.614;2022-12-28T07:33:18;12.20;99.90
7349;DHT22;13010;-33.424;-70.614;2022-12-28T07:36:08;12.20;99.90
7349;DHT22;13010;-33.424;-70.614;2022-12-28T07:39:00;12.00;99.90
7349;DHT22;13010;-33.424;-70.614;2022-12-28T07:41:49;12.00;99.90
7349;DHT22;13010;-33.424;-70.614;2022-12-28T07:44:38;11.90;99.90
7349;DHT22;13010;-33.424;-70.614;2022-12-28T07:47:27;11.80;99.90
7349;DHT22;13010;-33.424;-70.614;2022-12-28T07:50:18;11.80;99.90
7349;DHT22;13010;-33.424;-70.614;2022-12-28T07:53:06;11.80;99.90
7349;DHT22;13010;-33.424;-70.614;2022-12-28T07:55:56;11.80;99.90
7349;DHT22;13010;-33.424;-70.614;2022-12-28T07:58:48;11.70;99.90
7349;DHT22;13010;-33.424;-70.614;2022-12-28T08:01:37;11.60;99.90
7349;DHT22;13010;-33.424;-70.614;2022-12-28T08:04:26;11.60;99.90
7349;DHT22;13010;-33.424;-70.614;2022-12-28T08:07:16;11.50;99.90
7349;DHT22;13010;-33.424;-70.614;2022-12-28T08:10:06;11.40;99.90
7349;DHT22;13010;-33.424;-70.614;2022-12-28T08:12:56;11.30;99.90
7349;DHT22;13010;-33.424;-70.614;2022-12-28T08:15:53;11.30;99.90
7349;DHT22;13010;-33.424;-70.614;2022-12-28T08:18:42;11.30;99.90
7349;DHT22;13010;-33.424;-70.614;2022-12-28T08:21:32;11.20;99.90
7349;DHT22;13010;-33.424;-70.614;2022-12-28T08:24:23;11.10;99.90
7349;DHT22;13010;-33.424;-70.614;2022-12-28T08:27:11;11.10;99.90
7349;DHT22;13010;-33.424;-70.614;2022-12-28T08:29:59;11.00;99.90
7349;DHT22;13010;-33.424;-70.614;2022-12-28T08:32:48;11.00;99.90
7349;DHT22;13010;-33.424;-70.614;2022-12-28T08:35:37;10.90;99.90
7349;DHT22;13010;-33.424;-70.614;2022-12-28T08:38:26;10.90;99.90
7349;DHT22;13010;-33.424;-70.614;2022-12-28T08:41:17;10.90;99.90
7349;DHT22;13010;-33.424;-70.614;2022-12-28T08:44:06;10.80;99.90
7349;DHT22;13010;-33.424;-70.614;2022-12-28T08:46:55;10.70;99.90
7349;DHT22;13010;-33.424;-70.614;2022-12-28T08:49:44;10.70;99.90
7349;DHT22;13010;-33.424;-70.614;2022-12-28T08:52:33;10.60;99.90
7349;DHT22;13010;-33.424;-70.614;2022-12-28T08:55:22;10.50;99.90
7349;DHT22;13010;-33.424;-70.614;2022-12-28T08:58:12;10.40;99.90
7349;DHT22;13010;-33.424;-70.614;2022-12-28T09:01:11;10.40;99.90
7349;DHT22;13010;-33.424;-70.614;2022-12-28T09:04:03;10.40;99.90
7349;DHT22;13010;-33.424;-70.614;2022-12-28T09:06:52;10.30;99.90
7349;DHT22;13010;-33.424;-70.614;2022-12-28T09:09:41;10.30;99.90
7349;DHT22;13010;-33.424;-70.614;2022-12-28T09:12:31;10.10;99.90
7349;DHT22;13010;-33.424;-70.614;2022-12-28T09:15:21;10.10;99.90
7349;DHT22;13010;-33.424;-70.614;2022-12-28T09:18:10;10.10;99.90
7349;DHT22;13010;-33.424;-70.614;2022-12-28T09:21:05;10.00;99.90
7349;DHT22;13010;-33.424;-70.614;2022-12-28T09:23:54;9.80;99.90
7349;DHT22;13010;-33.424;-70.614;2022-12-28T09:26:43;9.70;99.90
7349;DHT22;13010;-33.424;-70.614;2022-12-28T09:29:31;9.60;99.90
7349;DHT22;13010;-33.424;-70.614;2022-12-28T09:32:22;9.70;99.90
7349;DHT22;13010;-33.424;-70.614;2022-12-28T09:35:11;9.80;99.90
7349;DHT22;13010;-33.424;-70.614;2022-12-28T09:38:00;9.60;99.90
7349;DHT22;13010;-33.424;-70.614;2022-12-28T09:40:49;9.70;99.90
7349;DHT22;13010;-33.424;-70.614;2022-12-28T09:43:40;9.70;99.90
7349;DHT22;13010;-33.424;-70.614;2022-12-28T09:46:31;9.70;99.90
7349;DHT22;13010;-33.424;-70.614;2022-12-28T09:49:26;9.60;99.90
7349;DHT22;13010;-33.424;-70.614;2022-12-28T09:52:27;9.70;99.90
7349;DHT22;13010;-33.424;-70.614;2022-12-28T09:55:18;10.10;99.90
7349;DHT22;13010;-33.424;-70.614;2022-12-28T09:58:14;10.40;99.90
7349;DHT22;13010;-33.424;-70.614;2022-12-28T10:01:03;10.70;99.90
7349;DHT22;13010;-33.424;-70.614;2022-12-28T10:03:57;11.00;99.90
7349;DHT22;13010;-33.424;-70.614;2022-12-28T10:06:49;11.00;99.90
7349;DHT22;13010;-33.424;-70.614;2022-12-28T10:09:38;11.40;99.90
7349;DHT22;13010;-33.424;-70.614;2022-12-28T10:12:29;12.00;99.90
7349;DHT22;13010;-33.424;-70.614;2022-12-28T10:15:18;12.70;99.90
7349;DHT22;13010;-33.424;-70.614;2022-12-28T10:18:11;13.20;99.90
7349;DHT22;13010;-33.424;-70.614;2022-12-28T10:21:01;13.80;99.90
7349;DHT22;13010;-33.424;-70.614;2022-12-28T10:23:53;13.40;99.90
7349;DHT22;13010;-33.424;-70.614;2022-12-28T10:26:44;12.90;99.90
7349;DHT22;13010;-33.424;-70.614;2022-12-28T10:29:34;12.70;99.90
7349;DHT22;13010;-33.424;-70.614;2022-12-28T10:32:22;13.90;99.90
7349;DHT22;13010;-33.424;-70.614;2022-12-28T10:35:22;14.70;99.90
7349;DHT22;13010;-33.424;-70.614;2022-12-28T10:38:20;14.10;99.90
7349;DHT22;13010;-33.424;-70.614;2022-12-28T10:41:13;13.60;99.90
7349;DHT22;13010;-33.424;-70.614;2022-12-28T10:44:15;13.10;99.90
7349;DHT22;13010;-33.424;-70.614;2022-12-28T10:47:14;12.70;99.90
7349;DHT22;13010;-33.424;-70.614;2022-12-28T10:50:05;13.40;99.90
7349;DHT22;13010;-33.424;-70.614;2022-12-28T10:52:57;15.80;99.90
7349;DHT22;13010;-33.424;-70.614;2022-12-28T10:55:46;17.70;99.90
7349;DHT22;13010;-33.424;-70.614;2022-12-28T10:58:36;18.60;99.90
7349;DHT22;13010;-33.424;-70.614;2022-12-28T11:01:26;18.10;99.90
7349;DHT22;13010;-33.424;-70.614;2022-12-28T11:04:18;19.20;99.90
7349;DHT22;13010;-33.424;-70.614;2022-12-28T11:07:27;20.70;99.90
7349;DHT22;13010;-33.424;-70.614;2022-12-28T11:10:23;21.80;99.90
7349;DHT22;13010;-33.424;-70.614;2022-12-28T11:13:19;22.00;99.90
7349;DHT22;13010;-33.424;-70.614;2022-12-28T11:16:13;21.80;99.90
7349;DHT22;13010;-33.424;-70.614;2022-12-28T11:19:02;22.10;99.90
7349;DHT22;13010;-33.424;-70.614;2022-12-28T11:21:51;23.60;99.90
7349;DHT22;13010;-33.424;-70.614;2022-12-28T11:24:40;24.60;99.90
7349;DHT22;13010;-33.424;-70.614;2022-12-28T11:27:29;25.20;96.00
7349;DHT22;13010;-33.424;-70.614;2022-12-28T11:30:19;25.10;94.20
7349;DHT22;13010;-33.424;-70.614;2022-12-28T11:33:23;24.50;92.50
7349;DHT22;13010;-33.424;-70.614;2022-12-28T11:36:15;24.20;93.30
7349;DHT22;13010;-33.424;-70.614;2022-12-28T11:39:31;24.20;94.20
7349;DHT22;13010;-33.424;-70.614;2022-12-28T11:45:51;25.80;90.30
7349;DHT22;13010;-33.424;-70.614;2022-12-28T11:48:56;27.50;78.70
7349;DHT22;13010;-33.424;-70.614;2022-12-28T11:51:46;29.50;65.50
7349;DHT22;13010;-33.424;-70.614;2022-12-28T11:54:49;29.40;57.60
7349;DHT22;13010;-33.424;-70.614;2022-12-28T11:57:39;29.90;54.70
7349;DHT22;13010;-33.424;-70.614;2022-12-28T12:00:47;30.80;51.00
7349;DHT22;13010;-33.424;-70.614;2022-12-28T12:07:46;31.60;47.30
7349;DHT22;13010;-33.424;-70.614;2022-12-28T12:10:36;30.80;46.20
7349;DHT22;13010;-33.424;-70.614;2022-12-28T12:13:41;30.80;46.60
7349;DHT22;13010;-33.424;-70.614;2022-12-28T12:16:46;32.00;44.20
7349;DHT22;13010;-33.424;-70.614;2022-12-28T12:19:37;32.90;42.00
7349;DHT22;13010;-33.424;-70.614;2022-12-28T12:22:30;32.70;41.30
7349;DHT22;13010;-33.424;-70.614;2022-12-28T12:25:26;32.90;39.70
7349;DHT22;13010;-33.424;-70.614;2022-12-28T12:28:30;34.30;39.20
7349;DHT22;13010;-33.424;-70.614;2022-12-28T12:31:25;33.90;37.50
7349;DHT22;13010;-33.424;-70.614;2022-12-28T12:34:18;34.40;36.80
7349;DHT22;13010;-33.424;-70.614;2022-12-28T12:37:27;35.40;35.50
7349;DHT22;13010;-33.424;-70.614;2022-12-28T12:40:44;36.00;33.90
7349;DHT22;13010;-33.424;-70.614;2022-12-28T12:43:45;36.10;32.70
7349;DHT22;13010;-33.424;-70.614;2022-12-28T12:50:18;35.70;31.90
7349;DHT22;13010;-33.424;-70.614;2022-12-28T12:53:20;37.10;30.70
7349;DHT22;13010;-33.424;-70.614;2022-12-28T12:56:32;36.50;30.10
7349;DHT22;13010;-33.424;-70.614;2022-12-28T12:59:39;36.90;29.90
7349;DHT22;13010;-33.424;-70.614;2022-12-28T13:05:55;37.80;29.00
7349;DHT22;13010;-33.424;-70.614;2022-12-28T13:08:48;39.20;27.40
7349;DHT22;13010;-33.424;-70.614;2022-12-28T13:11:40;38.70;27.90
7349;DHT22;13010;-33.424;-70.614;2022-12-28T13:14:29;40.00;26.60
7349;DHT22;13010;-33.424;-70.614;2022-12-28T13:17:19;40.00;25.90
7349;DHT22;13010;-33.424;-70.614;2022-12-28T13:20:13;41.10;25.30
7349;DHT22;13010;-33.424;-70.614;2022-12-28T13:23:10;40.10;25.20
7349;DHT22;13010;-33.424;-70.614;2022-12-28T13:26:03;40.00;26.10
7349;DHT22;13010;-33.424;-70.614;2022-12-28T13:28:56;40.30;25.70
7349;DHT22;13010;-33.424;-70.614;2022-12-28T13:31:46;41.70;25.00
7349;DHT22;13010;-33.424;-70.614;2022-12-28T13:34:36;42.10;24.50
7349;DHT22;13010;-33.424;-70.614;2022-12-28T13:37:26;42.20;23.50
7349;DHT22;13010;-33.424;-70.614;2022-12-28T13:40:16;41.20;24.20
7349;DHT22;13010;-33.424;-70.614;2022-12-28T13:43:41;41.60;23.60
7349;DHT22;13010;-33.424;-70.614;2022-12-28T13:46:41;41.40;23.80
7349;DHT22;13010;-33.424;-70.614;2022-12-28T13:49:34;40.70;23.30
7349;DHT22;13010;-33.424;-70.614;2022-12-28T13:52:29;41.20;23.20
7349;DHT22;13010;-33.424;-70.614;2022-12-28T13:55:21;41.20;23.90
7349;DHT22;13010;-33.424;-70.614;2022-12-28T13:58:14;41.40;23.60
7349;DHT22;13010;-33.424;-70.614;2022-12-28T14:01:12;42.50;21.80
7349;DHT22;13010;-33.424;-70.614;2022-12-28T14:04:06;41.60;23.20
7349;DHT22;13010;-33.424;-70.614;2022-12-28T14:06:57;42.40;22.80
7349;DHT22;13010;-33.424;-70.614;2022-12-28T14:09:47;42.90;22.80
7349;DHT22;13010;-33.424;-70.614;2022-12-28T14:12:37;43.20;21.60
7349;DHT22;13010;-33.424;-70.614;2022-12-28T14:15:32;43.90;21.40
7349;DHT22;13010;-33.424;-70.614;2022-12-28T14:18:23;43.90;21.30
7349;DHT22;13010;-33.424;-70.614;2022-12-28T14:21:40;44.90;20.70
7349;DHT22;13010;-33.424;-70.614;2022-12-28T14:24:33;42.90;20.60
7349;DHT22;13010;-33.424;-70.614;2022-12-28T14:27:23;45.00;20.70
7349;DHT22;13010;-33.424;-70.614;2022-12-28T14:30:22;45.50;20.60
7349;DHT22;13010;-33.424;-70.614;2022-12-28T14:33:18;45.70;20.30
7349;DHT22;13010;-33.424;-70.614;2022-12-28T14:36:18;44.40;20.70
7349;DHT22;13010;-33.424;-70.614;2022-12-28T14:39:25;44.00;20.80
7349;DHT22;13010;-33.424;-70.614;2022-12-28T14:42:19;43.00;21.60
7349;DHT22;13010;-33.424;-70.614;2022-12-28T14:45:29;42.40;22.30
7349;DHT22;13010;-33.424;-70.614;2022-12-28T14:48:29;41.00;22.10
7349;DHT22;13010;-33.424;-70.614;2022-12-28T14:51:28;42.50;21.80
7349;DHT22;13010;-33.424;-70.614;2022-12-28T14:54:19;43.50;21.60
7349;DHT22;13010;-33.424;-70.614;2022-12-28T14:57:18;43.90;21.60
7349;DHT22;13010;-33.424;-70.614;2022-12-28T15:00:25;44.40;20.90
7349;DHT22;13010;-33.424;-70.614;2022-12-28T15:03:20;43.60;21.40
7349;DHT22;13010;-33.424;-70.614;2022-12-28T15:06:10;44.00;21.10
7349;DHT22;13010;-33.424;-70.614;2022-12-28T15:09:02;44.20;20.60
7349;DHT22;13010;-33.424;-70.614;2022-12-28T15:12:08;44.40;20.70
7349;DHT22;13010;-33.424;-70.614;2022-12-28T15:14:57;45.30;20.30
7349;DHT22;13010;-33.424;-70.614;2022-12-28T15:17:46;44.50;20.50
7349;DHT22;13010;-33.424;-70.614;2022-12-28T15:20:39;43.90;20.80
7349;DHT22;13010;-33.424;-70.614;2022-12-28T15:23:28;42.00;21.40
7349;DHT22;13010;-33.424;-70.614;2022-12-28T15:26:20;43.00;21.50
7349;DHT22;13010;-33.424;-70.614;2022-12-28T15:29:12;44.20;20.40
7349;DHT22;13010;-33.424;-70.614;2022-12-28T15:32:02;44.10;21.10
7349;DHT22;13010;-33.424;-70.614;2022-12-28T15:34:51;44.20;20.70
7349;DHT22;13010;-33.424;-70.614;2022-12-28T15:37:40;44.40;20.80
7349;DHT22;13010;-33.424;-70.614;2022-12-28T15:40:29;44.40;20.40
7349;DHT22;13010;-33.424;-70.614;2022-12-28T15:43:21;45.10;20.00
7349;DHT22;13010;-33.424;-70.614;2022-12-28T15:46:10;45.40;20.30
7349;DHT22;13010;-33.424;-70.614;2022-12-28T15:49:01;45.20;20.20
7349;DHT22;13010;-33.424;-70.614;2022-12-28T15:51:51;44.50;21.00
7349;DHT22;13010;-33.424;-70.614;2022-12-28T15:54:41;43.50;20.60
7349;DHT22;13010;-33.424;-70.614;2022-12-28T15:57:31;43.90;21.00
7349;DHT22;13010;-33.424;-70.614;2022-12-28T16:00:22;43.90;21.10
7349;DHT22;13010;-33.424;-70.614;2022-12-28T16:03:11;44.40;19.90
7349;DHT22;13010;-33.424;-70.614;2022-12-28T16:06:03;43.10;20.90
7349;DHT22;13010;-33.424;-70.614;2022-12-28T16:08:55;43.10;20.90
7349;DHT22;13010;-33.424;-70.614;2022-12-28T16:11:45;42.80;21.50
7349;DHT22;13010;-33.424;-70.614;2022-12-28T16:14:38;41.70;21.80
7349;DHT22;13010;-33.424;-70.614;2022-12-28T16:17:29;42.10;21.40
7349;DHT22;13010;-33.424;-70.614;2022-12-28T16:20:19;43.40;21.10
7349;DHT22;13010;-33.424;-70.614;2022-12-28T16:23:08;43.90;20.10
7349;DHT22;13010;-33.424;-70.614;2022-12-28T16:26:09;44.00;20.30
7349;DHT22;13010;-33.424;-70.614;2022-12-28T16:29:00;42.00;21.10
7349;DHT22;13010;-33.424;-70.614;2022-12-28T16:31:49;42.50;21.40
7349;DHT22;13010;-33.424;-70.614;2022-12-28T16:34:42;41.90;21.50
7349;DHT22;13010;-33.424;-70.614;2022-12-28T16:37:41;42.70;22.10
7349;DHT22;13010;-33.424;-70.614;2022-12-28T16:40:31;43.60;21.10
7349;DHT22;13010;-33.424;-70.614;2022-12-28T16:43:23;44.70;20.20
7349;DHT22;13010;-33.424;-70.614;2022-12-28T16:46:14;45.50;19.00
7349;DHT22;13010;-33.424;-70.614;2022-12-28T16:49:05;45.30;19.70
7349;DHT22;13010;-33.424;-70.614;2022-12-28T16:52:01;44.90;18.70
7349;DHT22;13010;-33.424;-70.614;2022-12-28T16:54:59;44.80;20.00
7349;DHT22;13010;-33.424;-70.614;2022-12-28T16:57:54;43.50;20.00
7349;DHT22;13010;-33.424;-70.614;2022-12-28T17:00:46;43.90;19.80
7349;DHT22;13010;-33.424;-70.614;2022-12-28T17:03:45;43.10;20.90
7349;DHT22;13010;-33.424;-70.614;2022-12-28T17:06:34;42.90;21.40
7349;DHT22;13010;-33.424;-70.614;2022-12-28T17:09:27;43.60;20.00
7349;DHT22;13010;-33.424;-70.614;2022-12-28T17:12:16;43.30;20.40
7349;DHT22;13010;-33.424;-70.614;2022-12-28T17:15:07;43.00;20.30
7349;DHT22;13010;-33.424;-70.614;2022-12-28T17:17:56;43.60;19.70
7349;DHT22;13010;-33.424;-70.614;2022-12-28T17:20:46;42.60;19.90
7349;DHT22;13010;-33.424;-70.614;2022-12-28T17:23:37;43.90;19.20
7349;DHT22;13010;-33.424;-70.614;2022-12-28T17:26:29;44.00;18.80
7349;DHT22;13010;-33.424;-70.614;2022-12-28T17:29:19;44.60;18.40
7349;DHT22;13010;-33.424;-70.614;2022-12-28T17:32:08;44.70;19.70
7349;DHT22;13010;-33.424;-70.614;2022-12-28T17:35:01;43.80;19.60
7349;DHT22;13010;-33.424;-70.614;2022-12-28T17:37:51;43.20;20.30
7349;DHT22;13010;-33.424;-70.614;2022-12-28T17:40:44;43.90;20.60
7349;DHT22;13010;-33.424;-70.614;2022-12-28T17:43:38;44.20;20.70
7349;DHT22;13010;-33.424;-70.614;2022-12-28T17:46:28;43.10;20.30
7349;DHT22;13010;-33.424;-70.614;2022-12-28T17:49:18;43.00;20.00
7349;DHT22;13010;-33.424;-70.614;2022-12-28T17:52:10;43.40;19.50
7349;DHT22;13010;-33.424;-70.614;2022-12-28T17:55:06;42.80;20.00
7349;DHT22;13010;-33.424;-70.614;2022-12-28T17:57:57;42.20;19.70
7349;DHT22;13010;-33.424;-70.614;2022-12-28T18:00:52;43.20;20.40
7349;DHT22;13010;-33.424;-70.614;2022-12-28T18:03:50;43.90;19.50